createdAt,value
2023-03-02T00:00:53.967Z,988.60
2023-03-02T00:01:53.976Z,988.55
2023-03-02T00:02:53.979Z,988.66
2023-03-02T00:03:54.048Z,988.63
2023-03-02T00:04:53.932Z,988.59
2023-03-02T00:05:53.921Z,988.67
2023-03-02T00:06:53.923Z,988.70
2023-03-02T00:07:53.901Z,988.68
2023-03-02T00:08:53.884Z,988.63
2023-03-02T00:09:53.882Z,988.57
2023-03-02T00:10:53.873Z,988.62
2023-03-02T00:11:53.873Z,988.63
2023-03-02T00:12:53.854Z,988.62
2023-03-02T00:13:53.850Z,988.62
2023-03-02T00:14:53.838Z,988.73
2023-03-02T00:15:53.864Z,988.56
2023-03-02T00:16:53.830Z,988.77
2023-03-02T00:17:53.813Z,988.76
2023-03-02T00:18:53.798Z,988.74
2023-03-02T00:19:53.793Z,988.62
2023-03-02T00:20:53.781Z,988.71
2023-03-02T00:21:53.781Z,988.62
2023-03-02T00:22:53.763Z,988.68
2023-03-02T00:23:53.756Z,988.68
2023-03-02T00:24:53.743Z,988.65
2023-03-02T00:25:53.734Z,988.67
2023-03-02T00:26:53.735Z,988.68
2023-03-02T00:27:53.723Z,988.58
2023-03-02T00:28:53.709Z,988.65
2023-03-02T00:29:53.697Z,988.61
2023-03-02T00:30:53.685Z,988.60
2023-03-02T00:31:53.848Z,988.62
2023-03-02T00:32:53.672Z,988.61
2023-03-02T00:33:53.662Z,988.58
2023-03-02T00:34:53.657Z,988.63
2023-03-02T00:35:53.732Z,988.63
2023-03-02T00:36:53.635Z,988.62
2023-03-02T00:37:53.624Z,988.62
2023-03-02T00:38:53.621Z,988.63
2023-03-02T00:39:53.612Z,988.65
2023-03-02T00:40:53.596Z,988.56
2023-03-02T00:41:53.599Z,988.49
2023-03-02T00:42:53.577Z,988.61
2023-03-02T00:43:53.567Z,988.59
2023-03-02T00:44:53.563Z,988.63
2023-03-02T00:45:53.551Z,988.57
2023-03-02T00:46:53.616Z,988.55
2023-03-02T00:47:53.535Z,988.56
2023-03-02T00:48:53.522Z,988.52
2023-03-02T00:49:53.515Z,988.58
2023-03-02T00:50:53.508Z,988.50
2023-03-02T00:51:53.613Z,988.48
2023-03-02T00:52:53.489Z,988.53
2023-03-02T00:53:53.481Z,988.51
2023-03-02T00:54:53.473Z,988.52
2023-03-02T00:55:53.466Z,988.42
2023-03-02T00:56:53.507Z,988.55
2023-03-02T00:57:53.444Z,988.43
2023-03-02T00:58:53.439Z,988.42
2023-03-02T00:59:53.438Z,988.49
2023-03-02T01:00:53.423Z,988.45
2023-03-02T01:01:53.450Z,988.50
2023-03-02T01:02:53.496Z,988.52
2023-03-02T01:03:53.412Z,988.43
2023-03-02T01:04:53.394Z,988.41
2023-03-02T01:05:53.388Z,988.44
2023-03-02T01:06:53.397Z,988.43
2023-03-02T01:07:53.385Z,988.40
2023-03-02T01:08:53.361Z,988.44
2023-03-02T01:09:53.351Z,988.41
2023-03-02T01:10:54.306Z,988.41
2023-03-02T01:11:54.347Z,988.32
2023-03-02T01:12:53.329Z,988.36
2023-03-02T01:13:53.325Z,988.33
2023-03-02T01:14:53.308Z,988.33
2023-03-02T01:15:53.331Z,988.36
2023-03-02T01:16:53.306Z,988.28
2023-03-02T01:17:53.281Z,988.29
2023-03-02T01:18:53.275Z,988.24
2023-03-02T01:19:53.264Z,988.27
2023-03-02T01:20:53.257Z,988.24
2023-03-02T01:21:53.256Z,988.21
2023-03-02T01:22:53.243Z,988.25
2023-03-02T01:23:53.225Z,988.20
2023-03-02T01:24:53.218Z,988.28
2023-03-02T01:25:53.211Z,988.21
2023-03-02T01:26:53.219Z,988.26
2023-03-02T01:27:53.205Z,988.26
2023-03-02T01:28:53.183Z,988.23
2023-03-02T01:29:53.176Z,988.28
2023-03-02T01:30:53.168Z,988.32
2023-03-02T01:31:53.303Z,988.22
2023-03-02T01:32:53.146Z,988.19
2023-03-02T01:33:53.156Z,988.25
2023-03-02T01:34:53.122Z,988.26
2023-03-02T01:35:53.184Z,988.21
2023-03-02T01:36:53.116Z,988.23
2023-03-02T01:37:53.101Z,988.20
2023-03-02T01:38:53.119Z,988.23
2023-03-02T01:39:53.086Z,988.22
2023-03-02T01:40:53.065Z,988.20
2023-03-02T01:41:53.068Z,988.21
2023-03-02T01:42:53.050Z,988.19
2023-03-02T01:43:53.037Z,988.11
2023-03-02T01:44:53.065Z,988.22
2023-03-02T01:45:53.226Z,988.16
2023-03-02T01:46:53.024Z,988.21
2023-03-02T01:47:53.005Z,988.22
2023-03-02T01:48:53.008Z,988.24
2023-03-02T01:49:52.998Z,988.20
2023-03-02T01:50:52.977Z,988.20
2023-03-02T01:51:52.999Z,988.22
2023-03-02T01:52:52.963Z,988.21
2023-03-02T01:53:54.621Z,988.16
2023-03-02T01:54:52.943Z,988.19
2023-03-02T01:55:52.942Z,988.20
2023-03-02T01:56:52.952Z,988.11
2023-03-02T01:57:52.930Z,988.14
2023-03-02T01:58:52.911Z,988.13
2023-03-02T01:59:52.902Z,988.06
2023-03-02T02:00:52.901Z,988.08
2023-03-02T02:01:52.893Z,988.10
2023-03-02T02:02:52.869Z,988.03
2023-03-02T02:03:52.886Z,988.05
2023-03-02T02:04:52.854Z,988.02
2023-03-02T02:05:52.846Z,988.01
2023-03-02T02:06:52.876Z,987.93
2023-03-02T02:07:52.826Z,988.02
2023-03-02T02:08:52.826Z,987.95
2023-03-02T02:09:52.813Z,987.97
2023-03-02T02:10:52.793Z,988.00
2023-03-02T02:11:52.786Z,987.94
2023-03-02T02:12:52.805Z,987.90
2023-03-02T02:13:52.789Z,987.92
2023-03-02T02:14:52.767Z,987.91
2023-03-02T02:15:52.749Z,987.86
2023-03-02T02:16:52.789Z,987.89
2023-03-02T02:17:52.733Z,987.97
2023-03-02T02:18:53.725Z,988.02
2023-03-02T02:19:52.722Z,987.95
2023-03-02T02:20:52.697Z,987.83
2023-03-02T02:21:52.691Z,987.90
2023-03-02T02:22:52.696Z,987.96
2023-03-02T02:23:52.678Z,987.95
2023-03-02T02:24:52.660Z,987.94
2023-03-02T02:25:52.654Z,987.97
2023-03-02T02:26:52.645Z,987.85
2023-03-02T02:27:52.649Z,987.94
2023-03-02T02:28:52.664Z,987.86
2023-03-02T02:29:52.677Z,987.90
2023-03-02T02:30:52.610Z,987.89
2023-03-02T02:31:52.715Z,987.84
2023-03-02T02:32:52.651Z,987.87
2023-03-02T02:33:52.582Z,987.81
2023-03-02T02:34:52.584Z,987.84
2023-03-02T02:35:52.610Z,987.89
2023-03-02T02:36:52.555Z,987.87
2023-03-02T02:37:52.591Z,987.86
2023-03-02T02:38:52.537Z,987.83
2023-03-02T02:39:52.555Z,987.87
2023-03-02T02:40:52.540Z,987.88
2023-03-02T02:41:52.541Z,987.82
2023-03-02T02:42:52.531Z,987.77
2023-03-02T02:43:52.497Z,987.85
2023-03-02T02:44:52.486Z,987.86
2023-03-02T02:45:52.669Z,987.80
2023-03-02T02:46:52.472Z,987.73
2023-03-02T02:47:52.480Z,987.71
2023-03-02T02:48:52.445Z,987.72
2023-03-02T02:49:52.433Z,987.74
2023-03-02T02:50:53.428Z,987.69
2023-03-02T02:51:52.421Z,987.68
2023-03-02T02:52:52.425Z,987.62
2023-03-02T02:53:52.406Z,987.66
2023-03-02T02:54:52.397Z,987.61
2023-03-02T02:55:52.391Z,987.60
2023-03-02T02:56:52.376Z,987.66
2023-03-02T02:57:52.378Z,987.70
2023-03-02T02:58:52.359Z,987.66
2023-03-02T02:59:52.346Z,987.72
2023-03-02T03:00:52.402Z,987.70
2023-03-02T03:01:52.414Z,987.69
2023-03-02T03:02:52.337Z,987.69
2023-03-02T03:03:52.380Z,987.70
2023-03-02T03:04:52.309Z,987.69
2023-03-02T03:05:52.296Z,987.65
2023-03-02T03:06:52.294Z,987.64
2023-03-02T03:07:52.317Z,987.61
2023-03-02T03:08:52.268Z,987.66
2023-03-02T03:09:52.275Z,987.60
2023-03-02T03:10:52.248Z,987.60
2023-03-02T03:11:52.251Z,987.59
2023-03-02T03:12:52.246Z,987.66
2023-03-02T03:13:52.230Z,987.60
2023-03-02T03:14:52.217Z,987.68
2023-03-02T03:15:52.204Z,987.62
2023-03-02T03:16:52.265Z,987.59
2023-03-02T03:17:52.217Z,987.65
2023-03-02T03:18:52.179Z,987.61
2023-03-02T03:19:52.165Z,987.66
2023-03-02T03:20:52.163Z,987.63
2023-03-02T03:21:52.152Z,987.65
2023-03-02T03:22:52.147Z,987.66
2023-03-02T03:23:52.129Z,987.64
2023-03-02T03:24:52.135Z,987.66
2023-03-02T03:25:52.111Z,987.63
2023-03-02T03:26:52.104Z,987.70
2023-03-02T03:27:52.119Z,987.60
2023-03-02T03:28:52.083Z,987.67
2023-03-02T03:29:52.072Z,987.66
2023-03-02T03:30:52.103Z,987.69
2023-03-02T03:31:52.132Z,987.67
2023-03-02T03:32:52.057Z,987.67
2023-03-02T03:33:52.037Z,987.67
2023-03-02T03:34:52.038Z,987.67
2023-03-02T03:35:52.075Z,987.69
2023-03-02T03:36:52.025Z,987.66
2023-03-02T03:37:52.012Z,987.70
2023-03-02T03:38:51.997Z,987.75
2023-03-02T03:39:51.985Z,987.72
2023-03-02T03:40:51.971Z,987.70
2023-03-02T03:41:51.960Z,987.69
2023-03-02T03:42:51.968Z,987.64
2023-03-02T03:43:51.980Z,987.76
2023-03-02T03:44:52.946Z,987.73
2023-03-02T03:45:52.017Z,987.74
2023-03-02T03:46:51.932Z,987.71
2023-03-02T03:47:51.916Z,987.73
2023-03-02T03:48:51.906Z,987.74
2023-03-02T03:49:51.888Z,987.73
2023-03-02T03:50:51.881Z,987.71
2023-03-02T03:51:51.873Z,987.74
2023-03-02T03:52:51.877Z,987.75
2023-03-02T03:53:51.855Z,987.77
2023-03-02T03:54:51.847Z,987.72
2023-03-02T03:55:51.837Z,987.75
2023-03-02T03:56:51.826Z,987.74
2023-03-02T03:57:51.834Z,987.75
2023-03-02T03:58:51.827Z,987.77
2023-03-02T03:59:51.801Z,987.73
2023-03-02T04:00:51.791Z,987.71
2023-03-02T04:01:51.807Z,987.74
2023-03-02T04:02:51.820Z,987.76
2023-03-02T04:03:51.758Z,987.69
2023-03-02T04:04:51.758Z,987.72
2023-03-02T04:05:51.751Z,987.75
2023-03-02T04:06:51.732Z,987.70
2023-03-02T04:07:51.725Z,987.75
2023-03-02T04:08:51.712Z,987.75
2023-03-02T04:09:51.702Z,987.75
2023-03-02T04:10:51.694Z,987.69
2023-03-02T04:11:51.684Z,987.74
2023-03-02T04:12:51.686Z,987.73
2023-03-02T04:13:51.673Z,987.70
2023-03-02T04:14:51.665Z,987.71
2023-03-02T04:15:51.691Z,987.78
2023-03-02T04:16:51.647Z,987.77
2023-03-02T04:17:51.639Z,987.80
2023-03-02T04:18:51.619Z,987.80
2023-03-02T04:19:51.604Z,987.74
2023-03-02T04:20:51.603Z,987.81
2023-03-02T04:21:51.597Z,987.77
2023-03-02T04:22:51.606Z,987.73
2023-03-02T04:23:51.575Z,987.77
2023-03-02T04:24:51.568Z,987.84
2023-03-02T04:25:51.555Z,987.79
2023-03-02T04:26:51.573Z,987.70
2023-03-02T04:27:51.557Z,987.70
2023-03-02T04:28:51.532Z,987.72
2023-03-02T04:29:51.531Z,987.72
2023-03-02T04:30:51.608Z,987.70
2023-03-02T04:31:51.596Z,987.68
2023-03-02T04:32:51.515Z,987.71
2023-03-02T04:33:51.500Z,987.66
2023-03-02T04:34:51.492Z,987.70
2023-03-02T04:35:51.504Z,987.71
2023-03-02T04:36:51.472Z,987.67
2023-03-02T04:37:51.489Z,987.66
2023-03-02T04:38:51.461Z,987.69
2023-03-02T04:39:51.460Z,987.66
2023-03-02T04:40:51.438Z,987.63
2023-03-02T04:41:51.429Z,987.64
2023-03-02T04:42:51.436Z,987.72
2023-03-02T04:43:51.414Z,987.66
2023-03-02T04:44:51.405Z,987.68
2023-03-02T04:45:51.401Z,987.63
2023-03-02T04:46:51.524Z,987.67
2023-03-02T04:47:51.391Z,987.62
2023-03-02T04:48:51.370Z,987.66
2023-03-02T04:49:51.366Z,987.64
2023-03-02T04:50:51.354Z,987.66
2023-03-02T04:51:51.349Z,987.70
2023-03-02T04:52:51.348Z,987.66
2023-03-02T04:53:51.328Z,987.64
2023-03-02T04:54:51.359Z,987.65
2023-03-02T04:55:51.320Z,987.68
2023-03-02T04:56:51.302Z,987.61
2023-03-02T04:57:51.317Z,987.62
2023-03-02T04:58:51.286Z,987.60
2023-03-02T04:59:51.287Z,987.62
2023-03-02T05:00:51.280Z,987.57
2023-03-02T05:01:51.317Z,987.56
2023-03-02T05:02:52.269Z,987.64
2023-03-02T05:03:51.254Z,987.59
2023-03-02T05:04:51.257Z,987.66
2023-03-02T05:05:51.221Z,987.62
2023-03-02T05:06:51.239Z,987.65
2023-03-02T05:07:51.223Z,987.61
2023-03-02T05:08:51.194Z,987.60
2023-03-02T05:09:51.187Z,987.56
2023-03-02T05:10:51.178Z,987.58
2023-03-02T05:11:51.167Z,987.62
2023-03-02T05:12:51.171Z,987.64
2023-03-02T05:13:51.159Z,987.62
2023-03-02T05:14:51.139Z,987.61
2023-03-02T05:15:51.190Z,987.58
2023-03-02T05:16:51.123Z,987.52
2023-03-02T05:17:51.128Z,987.52
2023-03-02T05:19:23.017Z,987.56
2023-03-02T05:19:51.101Z,987.57
2023-03-02T05:20:51.095Z,987.56
2023-03-02T05:21:51.086Z,987.51
2023-03-02T05:22:51.117Z,987.60
2023-03-02T05:23:51.068Z,987.51
2023-03-02T05:24:51.059Z,987.58
2023-03-02T05:25:51.051Z,987.56
2023-03-02T05:26:51.046Z,987.59
2023-03-02T05:27:51.051Z,987.56
2023-03-02T05:28:53.017Z,987.61
2023-03-02T05:29:52.020Z,987.59
2023-03-02T05:30:51.021Z,987.56
2023-03-02T05:31:51.169Z,987.70
2023-03-02T05:32:50.993Z,987.59
2023-03-02T05:33:51.002Z,987.60
2023-03-02T05:34:50.971Z,987.56
2023-03-02T05:35:51.022Z,987.61
2023-03-02T05:36:50.954Z,987.66
2023-03-02T05:37:50.943Z,987.62
2023-03-02T05:38:50.947Z,987.69
2023-03-02T05:39:50.935Z,987.54
2023-03-02T05:40:50.922Z,987.56
2023-03-02T05:41:51.003Z,987.52
2023-03-02T05:42:50.906Z,987.54
2023-03-02T05:43:50.903Z,987.55
2023-03-02T05:44:50.891Z,987.54
2023-03-02T05:45:50.883Z,987.48
2023-03-02T05:46:50.904Z,987.56
2023-03-02T05:47:50.863Z,987.59
2023-03-02T05:48:50.865Z,987.55
2023-03-02T05:49:50.839Z,987.56
2023-03-02T05:50:50.837Z,987.56
2023-03-02T05:51:50.830Z,987.40
2023-03-02T05:52:50.858Z,987.46
2023-03-02T05:53:50.834Z,987.51
2023-03-02T05:54:50.795Z,987.52
2023-03-02T05:55:50.817Z,987.45
2023-03-02T05:56:50.779Z,987.48
2023-03-02T05:57:50.772Z,987.50
2023-03-02T05:58:50.781Z,987.48
2023-03-02T05:59:50.753Z,987.48
2023-03-02T06:00:50.756Z,987.49
2023-03-02T06:01:50.819Z,987.56
2023-03-02T06:02:50.773Z,987.49
2023-03-02T06:03:50.722Z,987.43
2023-03-02T06:04:50.702Z,987.52
2023-03-02T06:05:50.718Z,987.51
2023-03-02T06:06:50.689Z,987.54
2023-03-02T06:07:50.678Z,987.49
2023-03-02T06:08:50.680Z,987.52
2023-03-02T06:09:50.682Z,987.52
2023-03-02T06:10:50.675Z,987.52
2023-03-02T06:11:50.650Z,987.53
2023-03-02T06:12:50.625Z,987.55
2023-03-02T06:13:50.630Z,987.54
2023-03-02T06:14:50.607Z,987.59
2023-03-02T06:15:50.599Z,987.58
2023-03-02T06:16:50.625Z,987.65
2023-03-02T06:17:50.586Z,987.61
2023-03-02T06:18:50.601Z,987.66
2023-03-02T06:19:50.575Z,987.61
2023-03-02T06:20:50.573Z,987.56
2023-03-02T06:21:50.551Z,987.58
2023-03-02T06:22:50.541Z,987.63
2023-03-02T06:23:50.547Z,987.63
2023-03-02T06:24:50.519Z,987.64
2023-03-02T06:25:50.518Z,987.65
2023-03-02T06:26:50.502Z,987.60
2023-03-02T06:27:50.496Z,987.58
2023-03-02T06:28:53.146Z,987.57
2023-03-02T06:29:51.507Z,987.59
2023-03-02T06:30:50.476Z,987.57
2023-03-02T06:31:50.599Z,987.59
2023-03-02T06:32:50.510Z,987.64
2023-03-02T06:33:51.467Z,987.64
2023-03-02T06:34:50.437Z,987.55
2023-03-02T06:35:50.601Z,987.61
2023-03-02T06:36:50.417Z,987.62
2023-03-02T06:37:50.409Z,987.71
2023-03-02T06:38:50.440Z,987.62
2023-03-02T06:39:50.389Z,987.64
2023-03-02T06:40:50.387Z,987.73
2023-03-02T06:41:50.375Z,987.61
2023-03-02T06:42:50.362Z,987.63
2023-03-02T06:43:50.387Z,987.67
2023-03-02T06:44:50.342Z,987.65
2023-03-02T06:45:50.349Z,987.67
2023-03-02T06:46:50.328Z,987.68
2023-03-02T06:47:50.319Z,987.71
2023-03-02T06:48:50.319Z,987.74
2023-03-02T06:49:50.302Z,987.74
2023-03-02T06:50:50.300Z,987.65
2023-03-02T06:51:50.303Z,987.68
2023-03-02T06:52:50.281Z,987.72
2023-03-02T06:53:50.279Z,987.65
2023-03-02T06:54:50.255Z,987.74
2023-03-02T06:55:50.255Z,987.69
2023-03-02T06:56:50.241Z,987.65
2023-03-02T06:57:50.247Z,987.70
2023-03-02T06:58:50.245Z,987.66
2023-03-02T06:59:50.228Z,987.67
2023-03-02T07:00:50.273Z,987.59
2023-03-02T07:01:50.199Z,987.66
2023-03-02T07:02:50.189Z,987.71
2023-03-02T07:03:50.312Z,987.71
2023-03-02T07:04:50.176Z,987.66
2023-03-02T07:05:50.170Z,987.70
2023-03-02T07:06:50.153Z,987.71
2023-03-02T07:07:50.145Z,987.68
2023-03-02T07:08:50.144Z,987.74
2023-03-02T07:09:50.124Z,987.78
2023-03-02T07:10:50.124Z,987.71
2023-03-02T07:11:50.107Z,987.73
2023-03-02T07:12:50.093Z,987.73
2023-03-02T07:13:50.104Z,987.76
2023-03-02T07:14:50.075Z,987.76
2023-03-02T07:15:50.102Z,987.79
2023-03-02T07:16:50.121Z,987.80
2023-03-02T07:17:50.048Z,987.84
2023-03-02T07:18:50.061Z,987.88
2023-03-02T07:19:50.050Z,987.86
2023-03-02T07:20:50.029Z,987.91
2023-03-02T07:21:50.013Z,987.85
2023-03-02T07:22:50.009Z,987.87
2023-03-02T07:23:50.016Z,987.82
2023-03-02T07:24:50.001Z,987.89
2023-03-02T07:25:49.993Z,987.84
2023-03-02T07:26:49.980Z,987.81
2023-03-02T07:27:49.979Z,987.85
2023-03-02T07:28:50.010Z,987.78
2023-03-02T07:29:49.950Z,987.76
2023-03-02T07:30:49.998Z,987.73
2023-03-02T07:31:49.941Z,987.79
2023-03-02T07:32:49.925Z,987.73
2023-03-02T07:33:49.940Z,987.71
2023-03-02T07:34:49.912Z,987.76
2023-03-02T07:35:49.926Z,987.80
2023-03-02T07:36:49.892Z,987.77
2023-03-02T07:37:49.912Z,987.75
2023-03-02T07:38:49.876Z,987.75
2023-03-02T07:39:49.873Z,987.71
2023-03-02T07:40:49.853Z,987.72
2023-03-02T07:41:49.848Z,987.72
2023-03-02T07:42:49.833Z,987.73
2023-03-02T07:43:49.837Z,987.74
2023-03-02T07:44:49.814Z,987.78
2023-03-02T07:45:49.810Z,987.79
2023-03-02T07:46:49.871Z,987.85
2023-03-02T07:47:49.806Z,987.82
2023-03-02T07:48:49.799Z,987.83
2023-03-02T07:49:49.787Z,987.82
2023-03-02T07:50:49.774Z,987.82
2023-03-02T07:51:49.753Z,987.86
2023-03-02T07:52:49.752Z,987.84
2023-03-02T07:53:49.755Z,987.85
2023-03-02T07:54:49.735Z,987.71
2023-03-02T07:55:49.731Z,987.83
2023-03-02T07:56:49.711Z,987.88
2023-03-02T07:57:49.726Z,987.75
2023-03-02T07:58:49.706Z,987.87
2023-03-02T07:59:49.687Z,987.78
2023-03-02T08:00:49.685Z,987.84
2023-03-02T08:01:49.733Z,987.78
2023-03-02T08:02:49.726Z,987.80
2023-03-02T08:03:49.678Z,987.72
2023-03-02T08:04:49.645Z,987.78
2023-03-02T08:05:49.696Z,987.78
2023-03-02T08:06:49.641Z,987.73
2023-03-02T08:07:49.654Z,987.74
2023-03-02T08:08:49.624Z,987.82
2023-03-02T08:09:49.607Z,987.78
2023-03-02T08:10:49.612Z,987.78
2023-03-02T08:11:49.581Z,987.75
2023-03-02T08:12:49.572Z,987.83
2023-03-02T08:13:49.571Z,987.75
2023-03-02T08:14:49.563Z,987.77
2023-03-02T08:15:49.574Z,987.82
2023-03-02T08:16:49.537Z,987.72
2023-03-02T08:17:49.534Z,987.68
2023-03-02T08:18:49.540Z,987.70
2023-03-02T08:19:49.514Z,987.76
2023-03-02T08:20:49.496Z,987.71
2023-03-02T08:21:49.505Z,987.60
2023-03-02T08:22:49.492Z,987.56
2023-03-02T08:23:49.541Z,987.55
2023-03-02T08:24:49.469Z,987.58
2023-03-02T08:25:49.463Z,987.49
2023-03-02T08:26:49.449Z,987.43
2023-03-02T08:27:49.446Z,987.41
2023-03-02T08:28:49.471Z,987.39
2023-03-02T08:29:49.417Z,987.37
2023-03-02T08:30:50.420Z,987.40
2023-03-02T08:31:49.460Z,987.34
2023-03-02T08:32:49.460Z,987.38
2023-03-02T08:33:49.413Z,987.36
2023-03-02T08:34:49.380Z,987.38
2023-03-02T08:35:51.339Z,987.41
2023-03-02T08:36:49.362Z,987.47
2023-03-02T08:37:49.357Z,987.40
2023-03-02T08:38:49.370Z,987.50
2023-03-02T08:39:49.339Z,987.43
2023-03-02T08:40:49.331Z,987.48
2023-03-02T08:41:49.315Z,987.50
2023-03-02T08:42:49.307Z,987.46
2023-03-02T08:43:49.307Z,987.40
2023-03-02T08:44:50.297Z,987.29
2023-03-02T08:45:49.324Z,987.34
2023-03-02T08:46:49.272Z,987.22
2023-03-02T08:47:49.261Z,987.30
2023-03-02T08:48:49.276Z,987.30
2023-03-02T08:49:49.256Z,987.38
2023-03-02T08:50:49.238Z,987.32
2023-03-02T08:51:49.244Z,987.32
2023-03-02T08:52:49.221Z,987.33
2023-03-02T08:53:49.230Z,987.37
2023-03-02T08:54:49.230Z,987.37
2023-03-02T08:55:49.197Z,987.33
2023-03-02T08:56:49.182Z,987.28
2023-03-02T08:57:49.190Z,987.26
2023-03-02T08:58:49.197Z,987.21
2023-03-02T08:59:49.161Z,987.13
2023-03-02T09:00:49.215Z,987.13
2023-03-02T09:01:49.237Z,987.21
2023-03-02T09:02:49.128Z,987.27
2023-03-02T09:03:49.147Z,987.21
2023-03-02T09:04:49.188Z,987.34
2023-03-02T09:05:49.100Z,987.32
2023-03-02T09:06:49.090Z,987.33
2023-03-02T09:07:49.085Z,987.36
2023-03-02T09:08:49.114Z,987.30
2023-03-02T09:09:49.130Z,987.33
2023-03-02T09:10:49.059Z,987.33
2023-03-02T09:11:49.056Z,987.33
2023-03-02T09:12:49.050Z,987.31
2023-03-02T09:13:49.029Z,987.30
2023-03-02T09:14:49.039Z,987.30
2023-03-02T09:15:49.018Z,987.31
2023-03-02T09:16:49.077Z,987.34
2023-03-02T09:17:48.993Z,987.41
2023-03-02T09:18:48.982Z,987.36
2023-03-02T09:19:49.006Z,987.38
2023-03-02T09:20:48.971Z,987.37
2023-03-02T09:21:48.951Z,987.43
2023-03-02T09:22:49.956Z,987.32
2023-03-02T09:23:48.947Z,987.22
2023-03-02T09:24:48.948Z,987.24
2023-03-02T09:25:48.953Z,987.26
2023-03-02T09:26:48.920Z,987.25
2023-03-02T09:27:48.943Z,987.29
2023-03-02T09:28:48.904Z,987.25
2023-03-02T09:29:48.907Z,987.24
2023-03-02T09:30:48.886Z,987.16
2023-03-02T09:31:48.973Z,987.26
2023-03-02T09:32:48.978Z,987.22
2023-03-02T09:33:48.914Z,987.26
2023-03-02T09:34:48.857Z,987.22
2023-03-02T09:35:48.850Z,987.25
2023-03-02T09:36:48.832Z,987.20
2023-03-02T09:37:48.854Z,987.16
2023-03-02T09:38:48.819Z,987.26
2023-03-02T09:39:48.847Z,987.24
2023-03-02T09:40:48.793Z,987.19
2023-03-02T09:41:48.790Z,987.26
2023-03-02T09:42:48.774Z,987.28
2023-03-02T09:43:48.769Z,987.28
2023-03-02T09:44:48.765Z,987.22
2023-03-02T09:45:48.781Z,987.16
2023-03-02T09:46:48.739Z,987.11
2023-03-02T09:47:48.720Z,987.11
2023-03-02T09:48:49.718Z,987.14
2023-03-02T09:49:48.718Z,987.21
2023-03-02T09:50:48.704Z,987.09
2023-03-02T09:51:48.718Z,987.15
2023-03-02T09:52:48.685Z,987.14
2023-03-02T09:53:48.676Z,987.19
2023-03-02T09:54:48.668Z,987.09
2023-03-02T09:55:49.656Z,987.22
2023-03-02T09:56:48.663Z,987.13
2023-03-02T09:57:48.662Z,987.15
2023-03-02T09:58:48.627Z,987.24
2023-03-02T09:59:48.652Z,987.17
2023-03-02T10:00:48.618Z,987.23
2023-03-02T10:01:48.600Z,987.22
2023-03-02T10:02:48.689Z,987.24
2023-03-02T10:03:48.755Z,987.34
2023-03-02T10:04:48.631Z,987.22
2023-03-02T10:05:48.598Z,987.25
2023-03-02T10:06:48.551Z,987.24
2023-03-02T10:07:48.554Z,987.25
2023-03-02T10:08:48.539Z,987.33
2023-03-02T10:09:48.545Z,987.33
2023-03-02T10:10:48.528Z,987.32
2023-03-02T10:11:48.515Z,987.28
2023-03-02T10:12:48.500Z,987.28
2023-03-02T10:13:48.490Z,987.26
2023-03-02T10:14:48.497Z,987.30
2023-03-02T10:15:48.583Z,987.33
2023-03-02T10:16:48.497Z,987.29
2023-03-02T10:17:48.498Z,987.23
2023-03-02T10:18:48.522Z,987.28
2023-03-02T10:19:48.453Z,987.30
2023-03-02T10:20:48.430Z,987.25
2023-03-02T10:21:48.420Z,987.28
2023-03-02T10:22:48.419Z,987.26
2023-03-02T10:23:48.406Z,987.24
2023-03-02T10:24:48.407Z,987.21
2023-03-02T10:25:48.392Z,987.28
2023-03-02T10:26:48.415Z,987.27
2023-03-02T10:27:48.445Z,987.36
2023-03-02T10:28:48.375Z,987.23
2023-03-02T10:29:48.361Z,987.20
2023-03-02T10:30:48.407Z,987.18
2023-03-02T10:31:48.340Z,987.23
2023-03-02T10:32:48.333Z,987.22
2023-03-02T10:33:48.320Z,987.26
2023-03-02T10:34:48.358Z,987.23
2023-03-02T10:35:48.393Z,987.27
2023-03-02T10:36:48.314Z,987.19
2023-03-02T10:37:48.347Z,987.27
2023-03-02T10:38:48.283Z,987.22
2023-03-02T10:39:48.319Z,987.26
2023-03-02T10:40:48.255Z,987.22
2023-03-02T10:41:48.293Z,987.28
2023-03-02T10:42:48.246Z,987.21
2023-03-02T10:43:48.247Z,987.17
2023-03-02T10:44:48.444Z,987.20
2023-03-02T10:45:48.286Z,987.32
2023-03-02T10:46:48.288Z,987.21
2023-03-02T10:47:48.283Z,987.33
2023-03-02T10:48:49.659Z,987.32
2023-03-02T10:49:49.189Z,987.21
2023-03-02T10:50:48.170Z,987.24
2023-03-02T10:51:48.171Z,987.28
2023-03-02T10:52:59.227Z,987.28
2023-03-02T10:53:50.146Z,987.31
2023-03-02T10:54:48.152Z,987.22
2023-03-02T10:55:48.129Z,987.13
2023-03-02T10:56:48.131Z,987.15
2023-03-02T10:57:48.110Z,987.16
2023-03-02T10:58:48.100Z,987.15
2023-03-02T10:59:48.107Z,987.18
2023-03-02T11:00:48.086Z,987.15
2023-03-02T11:01:48.155Z,987.14
2023-03-02T11:02:48.069Z,987.09
2023-03-02T11:03:48.063Z,987.10
2023-03-02T11:04:48.119Z,987.05
2023-03-02T11:05:48.042Z,987.10
2023-03-02T11:06:48.034Z,987.10
2023-03-02T11:07:48.020Z,987.16
2023-03-02T11:08:48.017Z,987.11
2023-03-02T11:09:48.020Z,987.15
2023-03-02T11:10:47.996Z,987.12
2023-03-02T11:11:48.045Z,987.10
2023-03-02T11:12:47.982Z,987.14
2023-03-02T11:13:47.970Z,987.08
2023-03-02T11:14:47.961Z,987.19
2023-03-02T11:15:48.026Z,987.10
2023-03-02T11:16:47.944Z,987.07
2023-03-02T11:17:47.938Z,987.01
2023-03-02T11:18:47.925Z,987.18
2023-03-02T11:19:47.939Z,987.08
2023-03-02T11:20:47.904Z,987.06
2023-03-02T11:21:47.898Z,987.06
2023-03-02T11:22:47.883Z,987.09
2023-03-02T11:23:47.875Z,987.02
2023-03-02T11:24:47.872Z,987.07
2023-03-02T11:25:47.921Z,987.06
2023-03-02T11:26:47.850Z,986.97
2023-03-02T11:27:47.840Z,987.02
2023-03-02T11:28:47.875Z,986.97
2023-03-02T11:29:47.827Z,987.01
2023-03-02T11:30:47.822Z,987.03
2023-03-02T11:31:47.864Z,986.96
2023-03-02T11:32:47.872Z,987.03
2023-03-02T11:33:47.890Z,987.07
2023-03-02T11:34:47.779Z,986.99
2023-03-02T11:35:47.838Z,987.00
2023-03-02T11:36:47.755Z,986.94
2023-03-02T11:37:47.745Z,986.98
2023-03-02T11:38:47.746Z,986.99
2023-03-02T11:39:54.968Z,986.95
2023-03-02T11:40:49.735Z,986.96
2023-03-02T11:41:47.727Z,986.93
2023-03-02T11:42:47.708Z,986.87
2023-03-02T11:43:47.691Z,986.91
2023-03-02T11:44:47.690Z,986.84
2023-03-02T11:45:47.688Z,986.84
2023-03-02T11:46:47.699Z,986.79
2023-03-02T11:47:54.187Z,986.86
2023-03-02T11:48:49.657Z,986.86
2023-03-02T11:49:47.661Z,986.85
2023-03-02T11:50:47.637Z,986.87
2023-03-02T11:51:57.842Z,986.82
2023-03-02T11:52:49.608Z,986.81
2023-03-02T11:53:47.718Z,986.70
2023-03-02T11:54:47.607Z,986.76
2023-03-02T11:55:47.600Z,986.81
2023-03-02T11:56:47.573Z,986.75
2023-03-02T11:57:47.562Z,986.72
2023-03-02T11:58:47.558Z,986.77
2023-03-02T11:59:47.545Z,986.65
2023-03-02T12:00:47.556Z,986.63
2023-03-02T12:01:47.559Z,986.63
2023-03-02T12:02:47.523Z,986.57
2023-03-02T12:03:47.619Z,986.65
2023-03-02T12:04:47.512Z,986.69
2023-03-02T12:05:47.591Z,986.59
2023-03-02T12:06:47.502Z,986.62
2023-03-02T12:07:47.472Z,986.54
2023-03-02T12:08:47.561Z,986.60
2023-03-02T12:09:47.455Z,986.57
2023-03-02T12:10:47.460Z,986.53
2023-03-02T12:11:47.440Z,986.53
2023-03-02T12:12:47.434Z,986.56
2023-03-02T12:13:47.424Z,986.50
2023-03-02T12:14:47.493Z,986.58
2023-03-02T12:15:47.416Z,986.47
2023-03-02T12:16:47.428Z,986.46
2023-03-02T12:17:47.397Z,986.43
2023-03-02T12:18:47.377Z,986.44
2023-03-02T12:19:47.369Z,986.43
2023-03-02T12:20:47.369Z,986.38
2023-03-02T12:21:47.350Z,986.30
2023-03-02T12:22:47.335Z,986.36
2023-03-02T12:23:47.330Z,986.29
2023-03-02T12:24:47.316Z,986.30
2023-03-02T12:25:47.321Z,986.33
2023-03-02T12:26:47.303Z,986.31
2023-03-02T12:27:47.289Z,986.30
2023-03-02T12:28:47.311Z,986.29